sensor_id;sensor_type;location;lat;lon;timestamp;P1;durP1;ratioP1;P2;durP2;ratioP2
15402;SDS011;7799;53.478;10.170;2022-12-19T00:00:20;24.67;;;15.47;;
15402;SDS011;7799;53.478;10.170;2022-12-19T00:02:48;22.70;;;15.80;;
15402;SDS011;7799;53.478;10.170;2022-12-19T00:05:15;19.90;;;13.77;;
15402;SDS011;7799;53.478;10.170;2022-12-19T00:07:42;20.63;;;14.33;;
15402;SDS011;7799;53.478;10.170;2022-12-19T00:10:08;20.37;;;12.87;;
15402;SDS011;7799;53.478;10.170;2022-12-19T00:12:35;21.53;;;14.87;;
15402;SDS011;7799;53.478;10.170;2022-12-19T00:15:03;19.37;;;14.03;;
15402;SDS011;7799;53.478;10.170;2022-12-19T00:17:31;18.53;;;12.83;;
15402;SDS011;7799;53.478;10.170;2022-12-19T00:19:59;19.57;;;12.80;;
15402;SDS011;7799;53.478;10.170;2022-12-19T00:22:26;18.20;;;12.87;;
15402;SDS011;7799;53.478;10.170;2022-12-19T00:24:52;21.37;;;13.73;;
15402;SDS011;7799;53.478;10.170;2022-12-19T00:27:19;21.93;;;13.90;;
15402;SDS011;7799;53.478;10.170;2022-12-19T00:29:46;21.80;;;14.37;;
15402;SDS011;7799;53.478;10.170;2022-12-19T00:32:13;19.10;;;13.07;;
15402;SDS011;7799;53.478;10.170;2022-12-19T00:34:41;18.50;;;13.67;;
15402;SDS011;7799;53.478;10.170;2022-12-19T00:37:09;18.63;;;13.80;;
15402;SDS011;7799;53.478;10.170;2022-12-19T00:39:36;22.77;;;14.90;;
15402;SDS011;7799;53.478;10.170;2022-12-19T00:42:04;18.17;;;12.70;;
15402;SDS011;7799;53.478;10.170;2022-12-19T00:44:31;20.43;;;14.93;;
15402;SDS011;7799;53.478;10.170;2022-12-19T00:46:58;21.40;;;13.77;;
15402;SDS011;7799;53.478;10.170;2022-12-19T00:49:24;19.40;;;12.57;;
15402;SDS011;7799;53.478;10.170;2022-12-19T00:51:51;21.50;;;14.33;;
15402;SDS011;7799;53.478;10.170;2022-12-19T00:54:20;21.10;;;12.73;;
15402;SDS011;7799;53.478;10.170;2022-12-19T00:56:49;20.33;;;13.63;;
15402;SDS011;7799;53.478;10.170;2022-12-19T00:59:16;20.00;;;13.23;;
15402;SDS011;7799;53.478;10.170;2022-12-19T01:01:42;18.73;;;12.80;;
15402;SDS011;7799;53.478;10.170;2022-12-19T01:04:15;18.17;;;12.80;;
15402;SDS011;7799;53.478;10.170;2022-12-19T01:06:42;19.97;;;14.43;;
15402;SDS011;7799;53.478;10.170;2022-12-19T01:09:09;18.07;;;13.90;;
15402;SDS011;7799;53.478;10.170;2022-12-19T01:11:37;22.93;;;14.70;;
15402;SDS011;7799;53.478;10.170;2022-12-19T01:14:22;18.37;;;13.63;;
15402;SDS011;7799;53.478;10.170;2022-12-19T01:16:49;22.73;;;15.17;;
15402;SDS011;7799;53.478;10.170;2022-12-19T01:19:17;22.40;;;14.60;;
15402;SDS011;7799;53.478;10.170;2022-12-19T01:21:44;17.33;;;12.03;;
15402;SDS011;7799;53.478;10.170;2022-12-19T01:24:10;19.67;;;13.67;;
15402;SDS011;7799;53.478;10.170;2022-12-19T01:26:39;19.40;;;12.37;;
15402;SDS011;7799;53.478;10.170;2022-12-19T01:29:05;18.67;;;12.40;;
15402;SDS011;7799;53.478;10.170;2022-12-19T01:31:32;16.83;;;11.87;;
15402;SDS011;7799;53.478;10.170;2022-12-19T01:34:02;18.63;;;12.50;;
15402;SDS011;7799;53.478;10.170;2022-12-19T01:36:28;19.63;;;13.23;;
15402;SDS011;7799;53.478;10.170;2022-12-19T01:38:55;20.90;;;12.50;;
15402;SDS011;7799;53.478;10.170;2022-12-19T01:41:22;18.63;;;12.17;;
15402;SDS011;7799;53.478;10.170;2022-12-19T01:43:54;17.13;;;11.87;;
15402;SDS011;7799;53.478;10.170;2022-12-19T01:46:23;19.70;;;13.30;;
15402;SDS011;7799;53.478;10.170;2022-12-19T01:48:51;19.97;;;13.90;;
15402;SDS011;7799;53.478;10.170;2022-12-19T01:51:19;20.77;;;13.27;;
15402;SDS011;7799;53.478;10.170;2022-12-19T01:53:47;17.87;;;12.07;;
15402;SDS011;7799;53.478;10.170;2022-12-19T01:56:16;19.30;;;13.77;;
15402;SDS011;7799;53.478;10.170;2022-12-19T01:58:43;20.20;;;13.93;;
15402;SDS011;7799;53.478;10.170;2022-12-19T02:01:13;19.07;;;13.63;;
15402;SDS011;7799;53.478;10.170;2022-12-19T02:03:43;19.53;;;12.57;;
15402;SDS011;7799;53.478;10.170;2022-12-19T02:06:10;18.43;;;12.87;;
15402;SDS011;7799;53.478;10.170;2022-12-19T02:08:37;18.80;;;13.47;;
15402;SDS011;7799;53.478;10.170;2022-12-19T02:11:05;22.17;;;13.83;;
15402;SDS011;7799;53.478;10.170;2022-12-19T02:13:34;20.63;;;13.87;;
15402;SDS011;7799;53.478;10.170;2022-12-19T02:16:02;18.83;;;13.17;;
15402;SDS011;7799;53.478;10.170;2022-12-19T02:18:36;19.37;;;13.93;;
15402;SDS011;7799;53.478;10.170;2022-12-19T02:21:19;18.60;;;12.87;;
15402;SDS011;7799;53.478;10.170;2022-12-19T02:24:00;18.93;;;12.83;;
15402;SDS011;7799;53.478;10.170;2022-12-19T02:26:58;16.57;;;12.07;;
15402;SDS011;7799;53.478;10.170;2022-12-19T02:32:42;17.50;;;12.40;;
15402;SDS011;7799;53.478;10.170;2022-12-19T02:35:16;18.63;;;13.00;;
15402;SDS011;7799;53.478;10.170;2022-12-19T02:37:49;20.00;;;13.43;;
15402;SDS011;7799;53.478;10.170;2022-12-19T02:40:22;23.70;;;13.83;;
15402;SDS011;7799;53.478;10.170;2022-12-19T02:42:53;17.90;;;13.53;;
15402;SDS011;7799;53.478;10.170;2022-12-19T02:45:23;18.30;;;13.43;;
15402;SDS011;7799;53.478;10.170;2022-12-19T02:47:54;18.37;;;12.40;;
15402;SDS011;7799;53.478;10.170;2022-12-19T02:50:21;18.90;;;14.03;;
15402;SDS011;7799;53.478;10.170;2022-12-19T02:52:50;20.57;;;13.77;;
15402;SDS011;7799;53.478;10.170;2022-12-19T02:55:19;19.53;;;13.77;;
15402;SDS011;7799;53.478;10.170;2022-12-19T02:58:03;18.00;;;12.93;;
15402;SDS011;7799;53.478;10.170;2022-12-19T03:00:49;22.53;;;14.60;;
15402;SDS011;7799;53.478;10.170;2022-12-19T03:03:22;19.53;;;14.10;;
15402;SDS011;7799;53.478;10.170;2022-12-19T03:05:56;19.97;;;14.07;;
15402;SDS011;7799;53.478;10.170;2022-12-19T03:08:30;18.27;;;12.83;;
15402;SDS011;7799;53.478;10.170;2022-12-19T03:11:03;19.90;;;14.10;;
15402;SDS011;7799;53.478;10.170;2022-12-19T03:13:32;17.57;;;12.77;;
15402;SDS011;7799;53.478;10.170;2022-12-19T03:16:01;16.13;;;11.90;;
15402;SDS011;7799;53.478;10.170;2022-12-19T03:18:31;18.20;;;13.13;;
15402;SDS011;7799;53.478;10.170;2022-12-19T03:21:01;17.60;;;14.27;;
15402;SDS011;7799;53.478;10.170;2022-12-19T03:23:31;17.23;;;12.60;;
15402;SDS011;7799;53.478;10.170;2022-12-19T03:25:59;20.00;;;13.63;;
15402;SDS011;7799;53.478;10.170;2022-12-19T03:28:29;17.43;;;12.60;;
15402;SDS011;7799;53.478;10.170;2022-12-19T03:31:02;17.93;;;12.87;;
15402;SDS011;7799;53.478;10.170;2022-12-19T03:33:31;20.67;;;13.40;;
15402;SDS011;7799;53.478;10.170;2022-12-19T03:35:58;19.60;;;13.27;;
15402;SDS011;7799;53.478;10.170;2022-12-19T03:38:29;18.13;;;12.70;;
15402;SDS011;7799;53.478;10.170;2022-12-19T03:40:56;17.73;;;13.37;;
15402;SDS011;7799;53.478;10.170;2022-12-19T03:43:24;18.63;;;13.10;;
15402;SDS011;7799;53.478;10.170;2022-12-19T03:45:54;18.73;;;13.23;;
15402;SDS011;7799;53.478;10.170;2022-12-19T03:48:24;18.50;;;12.87;;
15402;SDS011;7799;53.478;10.170;2022-12-19T03:50:58;19.57;;;12.70;;
15402;SDS011;7799;53.478;10.170;2022-12-19T03:53:35;20.00;;;13.97;;
15402;SDS011;7799;53.478;10.170;2022-12-19T03:56:09;17.83;;;13.80;;
15402;SDS011;7799;53.478;10.170;2022-12-19T03:58:39;19.10;;;12.80;;
15402;SDS011;7799;53.478;10.170;2022-12-19T04:01:07;17.37;;;12.30;;
15402;SDS011;7799;53.478;10.170;2022-12-19T04:03:35;20.57;;;13.43;;
15402;SDS011;7799;53.478;10.170;2022-12-19T04:06:03;17.77;;;13.50;;
15402;SDS011;7799;53.478;10.170;2022-12-19T04:08:31;19.27;;;13.57;;
15402;SDS011;7799;53.478;10.170;2022-12-19T04:11:00;17.23;;;12.90;;
15402;SDS011;7799;53.478;10.170;2022-12-19T04:13:31;20.60;;;14.27;;
15402;SDS011;7799;53.478;10.170;2022-12-19T04:16:02;16.53;;;13.30;;
15402;SDS011;7799;53.478;10.170;2022-12-19T04:18:35;17.90;;;13.13;;
15402;SDS011;7799;53.478;10.170;2022-12-19T04:21:04;23.03;;;13.67;;
15402;SDS011;7799;53.478;10.170;2022-12-19T04:23:35;20.73;;;13.10;;
15402;SDS011;7799;53.478;10.170;2022-12-19T04:26:04;18.70;;;13.33;;
15402;SDS011;7799;53.478;10.170;2022-12-19T04:28:31;19.97;;;13.83;;
15402;SDS011;7799;53.478;10.170;2022-12-19T04:31:00;18.33;;;13.87;;
15402;SDS011;7799;53.478;10.170;2022-12-19T04:33:27;16.90;;;12.63;;
15402;SDS011;7799;53.478;10.170;2022-12-19T04:35:54;17.43;;;12.67;;
15402;SDS011;7799;53.478;10.170;2022-12-19T04:38:22;16.80;;;12.67;;
15402;SDS011;7799;53.478;10.170;2022-12-19T04:40:48;16.77;;;12.50;;
15402;SDS011;7799;53.478;10.170;2022-12-19T04:43:15;18.23;;;14.03;;
15402;SDS011;7799;53.478;10.170;2022-12-19T04:45:42;15.57;;;12.17;;
15402;SDS011;7799;53.478;10.170;2022-12-19T04:48:09;17.17;;;12.87;;
15402;SDS011;7799;53.478;10.170;2022-12-19T04:50:35;17.90;;;12.97;;
15402;SDS011;7799;53.478;10.170;2022-12-19T04:53:02;17.10;;;12.27;;
15402;SDS011;7799;53.478;10.170;2022-12-19T04:55:30;17.73;;;12.77;;
15402;SDS011;7799;53.478;10.170;2022-12-19T04:57:57;14.80;;;12.03;;
15402;SDS011;7799;53.478;10.170;2022-12-19T05:00:24;15.60;;;12.37;;
15402;SDS011;7799;53.478;10.170;2022-12-19T05:02:50;17.13;;;13.00;;
15402;SDS011;7799;53.478;10.170;2022-12-19T05:05:17;15.50;;;12.00;;
15402;SDS011;7799;53.478;10.170;2022-12-19T05:07:44;13.90;;;11.47;;
15402;SDS011;7799;53.478;10.170;2022-12-19T05:10:11;17.70;;;12.07;;
15402;SDS011;7799;53.478;10.170;2022-12-19T05:12:39;17.77;;;12.93;;
15402;SDS011;7799;53.478;10.170;2022-12-19T05:15:06;17.27;;;12.60;;
15402;SDS011;7799;53.478;10.170;2022-12-19T05:17:33;17.00;;;12.70;;
15402;SDS011;7799;53.478;10.170;2022-12-19T05:20:00;15.17;;;12.53;;
15402;SDS011;7799;53.478;10.170;2022-12-19T05:22:27;18.33;;;12.53;;
15402;SDS011;7799;53.478;10.170;2022-12-19T05:24:53;16.83;;;11.90;;
15402;SDS011;7799;53.478;10.170;2022-12-19T05:27:20;14.33;;;11.90;;
15402;SDS011;7799;53.478;10.170;2022-12-19T05:29:48;17.03;;;12.53;;
15402;SDS011;7799;53.478;10.170;2022-12-19T05:32:17;16.90;;;12.33;;
15402;SDS011;7799;53.478;10.170;2022-12-19T05:34:44;17.23;;;12.33;;
15402;SDS011;7799;53.478;10.170;2022-12-19T05:37:11;16.10;;;11.40;;
15402;SDS011;7799;53.478;10.170;2022-12-19T05:39:38;18.83;;;12.60;;
15402;SDS011;7799;53.478;10.170;2022-12-19T05:42:04;15.47;;;11.87;;
15402;SDS011;7799;53.478;10.170;2022-12-19T05:44:31;15.67;;;12.20;;
15402;SDS011;7799;53.478;10.170;2022-12-19T05:46:59;16.13;;;12.03;;
15402;SDS011;7799;53.478;10.170;2022-12-19T05:49:26;14.43;;;12.03;;
15402;SDS011;7799;53.478;10.170;2022-12-19T05:51:52;16.87;;;11.73;;
15402;SDS011;7799;53.478;10.170;2022-12-19T05:54:19;15.93;;;11.97;;
15402;SDS011;7799;53.478;10.170;2022-12-19T05:56:46;15.63;;;12.20;;
15402;SDS011;7799;53.478;10.170;2022-12-19T05:59:12;16.97;;;12.23;;
15402;SDS011;7799;53.478;10.170;2022-12-19T06:01:39;15.53;;;11.73;;
15402;SDS011;7799;53.478;10.170;2022-12-19T06:04:07;14.27;;;10.90;;
15402;SDS011;7799;53.478;10.170;2022-12-19T06:06:33;15.87;;;11.53;;
15402;SDS011;7799;53.478;10.170;2022-12-19T06:09:00;14.13;;;12.30;;
15402;SDS011;7799;53.478;10.170;2022-12-19T06:11:27;16.67;;;11.80;;
15402;SDS011;7799;53.478;10.170;2022-12-19T06:13:53;14.70;;;11.73;;
15402;SDS011;7799;53.478;10.170;2022-12-19T06:16:22;15.17;;;11.77;;
15402;SDS011;7799;53.478;10.170;2022-12-19T06:18:49;16.63;;;10.87;;
15402;SDS011;7799;53.478;10.170;2022-12-19T06:21:17;14.43;;;10.87;;
15402;SDS011;7799;53.478;10.170;2022-12-19T06:23:45;15.20;;;12.30;;
15402;SDS011;7799;53.478;10.170;2022-12-19T06:26:13;12.87;;;11.47;;
15402;SDS011;7799;53.478;10.170;2022-12-19T06:28:41;16.70;;;11.80;;
15402;SDS011;7799;53.478;10.170;2022-12-19T06:31:08;15.80;;;11.43;;
15402;SDS011;7799;53.478;10.170;2022-12-19T06:33:38;15.77;;;11.90;;
15402;SDS011;7799;53.478;10.170;2022-12-19T06:36:05;16.07;;;11.67;;
15402;SDS011;7799;53.478;10.170;2022-12-19T06:38:34;13.63;;;11.00;;
15402;SDS011;7799;53.478;10.170;2022-12-19T06:41:01;13.97;;;11.07;;
15402;SDS011;7799;53.478;10.170;2022-12-19T06:43:45;14.97;;;11.30;;
15402;SDS011;7799;53.478;10.170;2022-12-19T06:46:12;13.70;;;9.73;;
15402;SDS011;7799;53.478;10.170;2022-12-19T06:48:42;15.10;;;11.67;;
15402;SDS011;7799;53.478;10.170;2022-12-19T06:51:08;14.47;;;11.17;;
15402;SDS011;7799;53.478;10.170;2022-12-19T06:53:36;17.17;;;11.23;;
15402;SDS011;7799;53.478;10.170;2022-12-19T06:56:03;15.00;;;12.07;;
15402;SDS011;7799;53.478;10.170;2022-12-19T06:58:31;14.90;;;11.03;;
15402;SDS011;7799;53.478;10.170;2022-12-19T07:00:58;15.57;;;11.10;;
15402;SDS011;7799;53.478;10.170;2022-12-19T07:03:25;13.23;;;10.77;;
15402;SDS011;7799;53.478;10.170;2022-12-19T07:05:54;13.37;;;10.67;;
15402;SDS011;7799;53.478;10.170;2022-12-19T07:08:21;13.97;;;11.10;;
15402;SDS011;7799;53.478;10.170;2022-12-19T07:10:49;13.43;;;10.20;;
15402;SDS011;7799;53.478;10.170;2022-12-19T07:13:17;14.53;;;11.50;;
15402;SDS011;7799;53.478;10.170;2022-12-19T07:15:43;12.97;;;11.33;;
15402;SDS011;7799;53.478;10.170;2022-12-19T07:18:10;15.47;;;11.37;;
15402;SDS011;7799;53.478;10.170;2022-12-19T07:20:37;13.00;;;10.40;;
15402;SDS011;7799;53.478;10.170;2022-12-19T07:23:06;13.67;;;11.07;;
15402;SDS011;7799;53.478;10.170;2022-12-19T07:25:35;14.50;;;10.80;;
15402;SDS011;7799;53.478;10.170;2022-12-19T07:28:03;13.03;;;10.10;;
15402;SDS011;7799;53.478;10.170;2022-12-19T07:30:30;13.67;;;10.60;;
15402;SDS011;7799;53.478;10.170;2022-12-19T07:32:57;11.43;;;10.03;;
15402;SDS011;7799;53.478;10.170;2022-12-19T07:35:24;11.73;;;9.20;;
15402;SDS011;7799;53.478;10.170;2022-12-19T07:37:50;14.83;;;10.77;;
15402;SDS011;7799;53.478;10.170;2022-12-19T07:40:17;14.10;;;10.20;;
15402;SDS011;7799;53.478;10.170;2022-12-19T07:42:44;12.87;;;9.87;;
15402;SDS011;7799;53.478;10.170;2022-12-19T07:45:12;13.20;;;10.30;;
15402;SDS011;7799;53.478;10.170;2022-12-19T07:47:39;13.93;;;10.37;;
15402;SDS011;7799;53.478;10.170;2022-12-19T07:50:06;15.13;;;11.37;;
15402;SDS011;7799;53.478;10.170;2022-12-19T07:52:33;13.73;;;10.53;;
15402;SDS011;7799;53.478;10.170;2022-12-19T07:54:59;13.30;;;10.60;;
15402;SDS011;7799;53.478;10.170;2022-12-19T07:57:26;12.57;;;10.40;;
15402;SDS011;7799;53.478;10.170;2022-12-19T07:59:52;12.70;;;10.50;;
15402;SDS011;7799;53.478;10.170;2022-12-19T08:02:20;12.57;;;10.00;;
15402;SDS011;7799;53.478;10.170;2022-12-19T08:04:47;16.03;;;11.03;;
15402;SDS011;7799;53.478;10.170;2022-12-19T08:07:15;15.70;;;10.87;;
15402;SDS011;7799;53.478;10.170;2022-12-19T08:09:41;11.87;;;10.50;;
15402;SDS011;7799;53.478;10.170;2022-12-19T08:12:08;13.87;;;11.03;;
15402;SDS011;7799;53.478;10.170;2022-12-19T08:14:35;15.60;;;11.77;;
15402;SDS011;7799;53.478;10.170;2022-12-19T08:17:02;14.40;;;10.73;;
15402;SDS011;7799;53.478;10.170;2022-12-19T08:19:30;15.90;;;11.97;;
15402;SDS011;7799;53.478;10.170;2022-12-19T08:21:56;15.03;;;11.47;;
15402;SDS011;7799;53.478;10.170;2022-12-19T08:24:23;13.47;;;10.17;;
15402;SDS011;7799;53.478;10.170;2022-12-19T08:26:50;15.60;;;11.53;;
15402;SDS011;7799;53.478;10.170;2022-12-19T08:29:16;15.37;;;11.77;;
15402;SDS011;7799;53.478;10.170;2022-12-19T08:31:43;14.40;;;10.73;;
15402;SDS011;7799;53.478;10.170;2022-12-19T08:34:10;15.50;;;12.30;;
15402;SDS011;7799;53.478;10.170;2022-12-19T08:36:38;13.60;;;11.03;;
15402;SDS011;7799;53.478;10.170;2022-12-19T08:39:04;15.37;;;11.93;;
15402;SDS011;7799;53.478;10.170;2022-12-19T08:41:31;13.70;;;11.07;;
15402;SDS011;7799;53.478;10.170;2022-12-19T08:43:58;14.33;;;11.47;;
15402;SDS011;7799;53.478;10.170;2022-12-19T08:46:24;17.10;;;12.43;;
15402;SDS011;7799;53.478;10.170;2022-12-19T08:48:51;12.80;;;10.40;;
15402;SDS011;7799;53.478;10.170;2022-12-19T08:51:18;14.40;;;11.27;;
15402;SDS011;7799;53.478;10.170;2022-12-19T08:53:46;16.23;;;11.50;;
15402;SDS011;7799;53.478;10.170;2022-12-19T08:56:13;15.90;;;11.37;;
15402;SDS011;7799;53.478;10.170;2022-12-19T08:58:41;14.33;;;11.73;;
15402;SDS011;7799;53.478;10.170;2022-12-19T09:01:10;12.37;;;10.33;;
15402;SDS011;7799;53.478;10.170;2022-12-19T09:03:39;13.03;;;11.17;;
15402;SDS011;7799;53.478;10.170;2022-12-19T09:06:07;14.10;;;10.90;;
15402;SDS011;7799;53.478;10.170;2022-12-19T09:08:36;15.50;;;11.83;;
15402;SDS011;7799;53.478;10.170;2022-12-19T09:11:05;13.47;;;12.00;;
15402;SDS011;7799;53.478;10.170;2022-12-19T09:13:34;16.30;;;11.13;;
15402;SDS011;7799;53.478;10.170;2022-12-19T09:16:01;12.33;;;11.03;;
15402;SDS011;7799;53.478;10.170;2022-12-19T09:18:29;13.10;;;11.30;;
15402;SDS011;7799;53.478;10.170;2022-12-19T09:20:56;15.37;;;11.77;;
15402;SDS011;7799;53.478;10.170;2022-12-19T09:23:24;15.30;;;11.37;;
15402;SDS011;7799;53.478;10.170;2022-12-19T09:25:52;15.53;;;12.03;;
15402;SDS011;7799;53.478;10.170;2022-12-19T09:28:20;16.27;;;12.20;;
15402;SDS011;7799;53.478;10.170;2022-12-19T09:30:53;14.00;;;12.07;;
15402;SDS011;7799;53.478;10.170;2022-12-19T09:33:20;14.20;;;11.40;;
15402;SDS011;7799;53.478;10.170;2022-12-19T09:35:48;15.83;;;12.53;;
15402;SDS011;7799;53.478;10.170;2022-12-19T09:38:15;18.30;;;11.73;;
15402;SDS011;7799;53.478;10.170;2022-12-19T09:40:44;12.10;;;10.67;;
15402;SDS011;7799;53.478;10.170;2022-12-19T09:43:19;16.33;;;12.03;;
15402;SDS011;7799;53.478;10.170;2022-12-19T09:45:57;16.13;;;11.80;;
15402;SDS011;7799;53.478;10.170;2022-12-19T09:48:28;15.30;;;11.13;;
15402;SDS011;7799;53.478;10.170;2022-12-19T09:50:55;15.90;;;12.03;;
15402;SDS011;7799;53.478;10.170;2022-12-19T09:53:26;16.53;;;11.70;;
15402;SDS011;7799;53.478;10.170;2022-12-19T09:55:54;16.43;;;12.90;;
15402;SDS011;7799;53.478;10.170;2022-12-19T09:58:29;16.57;;;12.13;;
15402;SDS011;7799;53.478;10.170;2022-12-19T10:00:58;13.70;;;11.73;;
15402;SDS011;7799;53.478;10.170;2022-12-19T10:03:27;13.13;;;10.40;;
15402;SDS011;7799;53.478;10.170;2022-12-19T10:05:56;13.80;;;10.93;;
15402;SDS011;7799;53.478;10.170;2022-12-19T10:08:27;14.80;;;13.03;;
15402;SDS011;7799;53.478;10.170;2022-12-19T10:10:59;16.70;;;12.90;;
15402;SDS011;7799;53.478;10.170;2022-12-19T10:13:35;14.30;;;11.80;;
15402;SDS011;7799;53.478;10.170;2022-12-19T10:16:09;13.37;;;10.30;;
15402;SDS011;7799;53.478;10.170;2022-12-19T10:18:41;11.57;;;9.97;;
15402;SDS011;7799;53.478;10.170;2022-12-19T10:21:17;14.23;;;11.57;;
15402;SDS011;7799;53.478;10.170;2022-12-19T10:23:58;13.33;;;11.53;;
15402;SDS011;7799;53.478;10.170;2022-12-19T10:26:43;13.33;;;10.20;;
15402;SDS011;7799;53.478;10.170;2022-12-19T10:29:22;13.63;;;11.37;;
15402;SDS011;7799;53.478;10.170;2022-12-19T10:32:01;15.93;;;12.03;;
15402;SDS011;7799;53.478;10.170;2022-12-19T10:34:31;13.67;;;11.33;;
15402;SDS011;7799;53.478;10.170;2022-12-19T10:37:00;13.63;;;11.60;;
15402;SDS011;7799;53.478;10.170;2022-12-19T10:39:35;14.40;;;10.63;;
15402;SDS011;7799;53.478;10.170;2022-12-19T10:42:14;12.43;;;9.60;;
15402;SDS011;7799;53.478;10.170;2022-12-19T10:44:46;13.27;;;11.40;;
15402;SDS011;7799;53.478;10.170;2022-12-19T10:47:14;10.57;;;9.50;;
15402;SDS011;7799;53.478;10.170;2022-12-19T10:49:42;11.53;;;9.50;;
15402;SDS011;7799;53.478;10.170;2022-12-19T10:52:09;13.03;;;10.60;;
15402;SDS011;7799;53.478;10.170;2022-12-19T10:54:37;13.10;;;10.80;;
15402;SDS011;7799;53.478;10.170;2022-12-19T10:57:18;11.97;;;10.00;;
15402;SDS011;7799;53.478;10.170;2022-12-19T10:59:57;11.27;;;9.90;;
15402;SDS011;7799;53.478;10.170;2022-12-19T11:02:29;13.90;;;11.77;;
15402;SDS011;7799;53.478;10.170;2022-12-19T11:04:59;10.70;;;9.33;;
15402;SDS011;7799;53.478;10.170;2022-12-19T11:07:26;11.97;;;10.00;;
15402;SDS011;7799;53.478;10.170;2022-12-19T11:09:53;13.40;;;11.07;;
15402;SDS011;7799;53.478;10.170;2022-12-19T11:12:20;12.33;;;10.70;;
15402;SDS011;7799;53.478;10.170;2022-12-19T11:14:49;11.77;;;9.87;;
15402;SDS011;7799;53.478;10.170;2022-12-19T11:17:25;12.00;;;9.20;;
15402;SDS011;7799;53.478;10.170;2022-12-19T11:19:53;11.90;;;10.20;;
15402;SDS011;7799;53.478;10.170;2022-12-19T11:22:24;13.30;;;10.47;;
15402;SDS011;7799;53.478;10.170;2022-12-19T11:24:53;12.67;;;10.67;;
15402;SDS011;7799;53.478;10.170;2022-12-19T11:27:30;11.57;;;9.57;;
15402;SDS011;7799;53.478;10.170;2022-12-19T11:30:04;12.13;;;10.70;;
15402;SDS011;7799;53.478;10.170;2022-12-19T11:32:35;12.23;;;9.87;;
15402;SDS011;7799;53.478;10.170;2022-12-19T11:35:03;10.60;;;7.77;;
15402;SDS011;7799;53.478;10.170;2022-12-19T11:37:39;11.27;;;9.50;;
15402;SDS011;7799;53.478;10.170;2022-12-19T11:40:12;8.77;;;7.90;;
15402;SDS011;7799;53.478;10.170;2022-12-19T11:42:44;10.53;;;8.67;;
15402;SDS011;7799;53.478;10.170;2022-12-19T11:45:16;10.07;;;9.00;;
15402;SDS011;7799;53.478;10.170;2022-12-19T11:47:48;9.53;;;8.50;;
15402;SDS011;7799;53.478;10.170;2022-12-19T11:50:20;8.40;;;7.60;;
15402;SDS011;7799;53.478;10.170;2022-12-19T11:52:51;8.17;;;6.93;;
15402;SDS011;7799;53.478;10.170;2022-12-19T11:55:22;8.43;;;7.20;;
15402;SDS011;7799;53.478;10.170;2022-12-19T11:57:51;10.10;;;8.30;;
15402;SDS011;7799;53.478;10.170;2022-12-19T12:00:19;11.03;;;9.73;;
15402;SDS011;7799;53.478;10.170;2022-12-19T12:02:58;10.60;;;9.33;;
15402;SDS011;7799;53.478;10.170;2022-12-19T12:05:41;12.73;;;8.57;;
15402;SDS011;7799;53.478;10.170;2022-12-19T12:08:23;12.73;;;10.73;;
15402;SDS011;7799;53.478;10.170;2022-12-19T12:11:01;11.63;;;10.43;;
15402;SDS011;7799;53.478;10.170;2022-12-19T12:13:33;9.30;;;8.50;;
15402;SDS011;7799;53.478;10.170;2022-12-19T12:16:04;10.00;;;8.57;;
15402;SDS011;7799;53.478;10.170;2022-12-19T12:18:42;11.37;;;9.17;;
15402;SDS011;7799;53.478;10.170;2022-12-19T12:21:18;11.13;;;9.93;;
15402;SDS011;7799;53.478;10.170;2022-12-19T12:23:53;12.20;;;10.00;;
15402;SDS011;7799;53.478;10.170;2022-12-19T12:26:28;12.20;;;10.23;;
15402;SDS011;7799;53.478;10.170;2022-12-19T12:29:02;11.37;;;9.70;;
15402;SDS011;7799;53.478;10.170;2022-12-19T12:31:33;8.30;;;7.50;;
15402;SDS011;7799;53.478;10.170;2022-12-19T12:34:09;8.90;;;8.00;;
15402;SDS011;7799;53.478;10.170;2022-12-19T12:36:47;9.70;;;8.70;;
15402;SDS011;7799;53.478;10.170;2022-12-19T12:39:19;12.00;;;10.20;;
15402;SDS011;7799;53.478;10.170;2022-12-19T12:41:49;10.23;;;9.13;;
15402;SDS011;7799;53.478;10.170;2022-12-19T12:44:30;6.83;;;6.20;;
15402;SDS011;7799;53.478;10.170;2022-12-19T12:47:00;7.30;;;6.60;;
15402;SDS011;7799;53.478;10.170;2022-12-19T12:49:36;7.93;;;7.23;;
15402;SDS011;7799;53.478;10.170;2022-12-19T12:52:04;7.40;;;6.70;;
15402;SDS011;7799;53.478;10.170;2022-12-19T12:54:33;8.50;;;7.63;;
15402;SDS011;7799;53.478;10.170;2022-12-19T12:57:01;10.80;;;8.57;;
15402;SDS011;7799;53.478;10.170;2022-12-19T12:59:29;8.80;;;7.90;;
15402;SDS011;7799;53.478;10.170;2022-12-19T13:01:57;8.60;;;7.40;;
15402;SDS011;7799;53.478;10.170;2022-12-19T13:04:29;7.40;;;6.70;;
15402;SDS011;7799;53.478;10.170;2022-12-19T13:07:12;8.63;;;7.73;;
15402;SDS011;7799;53.478;10.170;2022-12-19T13:09:41;9.87;;;8.27;;
15402;SDS011;7799;53.478;10.170;2022-12-19T13:12:17;10.90;;;9.80;;
15402;SDS011;7799;53.478;10.170;2022-12-19T13:18:07;10.53;;;8.90;;
15402;SDS011;7799;53.478;10.170;2022-12-19T13:20:49;11.87;;;9.27;;
15402;SDS011;7799;53.478;10.170;2022-12-19T13:23:21;8.90;;;7.93;;
15402;SDS011;7799;53.478;10.170;2022-12-19T13:25:51;10.57;;;9.40;;
15402;SDS011;7799;53.478;10.170;2022-12-19T13:28:38;10.87;;;9.77;;
15402;SDS011;7799;53.478;10.170;2022-12-19T13:31:16;9.37;;;8.47;;
15402;SDS011;7799;53.478;10.170;2022-12-19T13:36:51;9.27;;;8.37;;
15402;SDS011;7799;53.478;10.170;2022-12-19T13:39:26;8.53;;;7.73;;
15402;SDS011;7799;53.478;10.170;2022-12-19T13:45:01;8.87;;;7.87;;
15402;SDS011;7799;53.478;10.170;2022-12-19T13:47:31;8.40;;;7.50;;
15402;SDS011;7799;53.478;10.170;2022-12-19T13:49:59;8.00;;;7.20;;
15402;SDS011;7799;53.478;10.170;2022-12-19T13:52:30;7.93;;;7.23;;
15402;SDS011;7799;53.478;10.170;2022-12-19T13:54:58;8.80;;;7.90;;
15402;SDS011;7799;53.478;10.170;2022-12-19T13:57:25;8.83;;;7.83;;
15402;SDS011;7799;53.478;10.170;2022-12-19T13:59:54;8.87;;;8.07;;
15402;SDS011;7799;53.478;10.170;2022-12-19T14:02:25;8.97;;;7.77;;
15402;SDS011;7799;53.478;10.170;2022-12-19T14:04:55;9.77;;;8.67;;
15402;SDS011;7799;53.478;10.170;2022-12-19T14:07:25;9.20;;;8.30;;
15402;SDS011;7799;53.478;10.170;2022-12-19T14:09:55;9.00;;;8.13;;
15402;SDS011;7799;53.478;10.170;2022-12-19T14:12:24;7.83;;;6.97;;
15402;SDS011;7799;53.478;10.170;2022-12-19T14:15:19;7.90;;;7.10;;
15402;SDS011;7799;53.478;10.170;2022-12-19T14:17:48;8.20;;;6.87;;
15402;SDS011;7799;53.478;10.170;2022-12-19T14:20:18;7.97;;;7.27;;
15402;SDS011;7799;53.478;10.170;2022-12-19T14:22:46;7.10;;;6.40;;
15402;SDS011;7799;53.478;10.170;2022-12-19T14:25:13;7.57;;;6.93;;
15402;SDS011;7799;53.478;10.170;2022-12-19T14:27:42;8.33;;;7.53;;
15402;SDS011;7799;53.478;10.170;2022-12-19T14:30:14;8.10;;;7.30;;
15402;SDS011;7799;53.478;10.170;2022-12-19T14:32:43;6.53;;;5.93;;
15402;SDS011;7799;53.478;10.170;2022-12-19T14:35:19;6.37;;;5.77;;
15402;SDS011;7799;53.478;10.170;2022-12-19T14:37:47;5.03;;;4.63;;
15402;SDS011;7799;53.478;10.170;2022-12-19T14:40:20;5.30;;;4.80;;
15402;SDS011;7799;53.478;10.170;2022-12-19T14:42:50;4.67;;;4.27;;
15402;SDS011;7799;53.478;10.170;2022-12-19T14:45:36;5.60;;;5.10;;
15402;SDS011;7799;53.478;10.170;2022-12-19T14:51:01;5.10;;;4.53;;
15402;SDS011;7799;53.478;10.170;2022-12-19T14:53:28;5.20;;;4.70;;
15402;SDS011;7799;53.478;10.170;2022-12-19T14:56:00;4.70;;;4.40;;